sensor_id;sensor_type;location;lat;lon;timestamp;pressure;altitude;pressure_sealevel;temperature;humidity
62712;BME280;48772;55.586;37.730;2023-08-20T00:01:58;99709.66;;;22.93;100.00
62712;BME280;48772;55.586;37.730;2023-08-20T00:04:28;99705.88;;;22.87;100.00
62712;BME280;48772;55.586;37.730;2023-08-20T00:06:54;99700.63;;;22.86;100.00
62712;BME280;48772;55.586;37.730;2023-08-20T00:09:20;99672.91;;;22.69;100.00
62712;BME280;48772;55.586;37.730;2023-08-20T00:11:46;99695.16;;;22.79;100.00
62712;BME280;48772;55.586;37.730;2023-08-20T00:14:16;99704.38;;;22.85;100.00
62712;BME280;48772;55.586;37.730;2023-08-20T00:16:43;99690.56;;;22.80;100.00
62712;BME280;48772;55.586;37.730;2023-08-20T00:19:10;99672.09;;;22.69;100.00
62712;BME280;48772;55.586;37.730;2023-08-20T00:21:42;99675.19;;;22.66;100.00
62712;BME280;48772;55.586;37.730;2023-08-20T00:24:10;99701.44;;;22.80;100.00
62712;BME280;48772;55.586;37.730;2023-08-20T00:26:37;99686.75;;;22.74;100.00
62712;BME280;48772;55.586;37.730;2023-08-20T00:29:03;99677.56;;;22.75;100.00
62712;BME280;48772;55.586;37.730;2023-08-20T00:31:29;99682.41;;;22.80;100.00
62712;BME280;48772;55.586;37.730;2023-08-20T00:33:55;99683.91;;;22.89;100.00
62712;BME280;48772;55.586;37.730;2023-08-20T00:36:21;99668.81;;;22.80;100.00
62712;BME280;48772;55.586;37.730;2023-08-20T00:38:47;99669.69;;;22.87;100.00
62712;BME280;48772;55.586;37.730;2023-08-20T00:41:13;99657.09;;;22.79;100.00
62712;BME280;48772;55.586;37.730;2023-08-20T00:43:39;99672.22;;;22.88;100.00
62712;BME280;48772;55.586;37.730;2023-08-20T00:46:05;99663.00;;;22.89;100.00
62712;BME280;48772;55.586;37.730;2023-08-20T00:48:32;99639.06;;;22.72;100.00
62712;BME280;48772;55.586;37.730;2023-08-20T00:50:59;99652.00;;;22.70;100.00
62712;BME280;48772;55.586;37.730;2023-08-20T00:53:24;99647.59;;;22.62;100.00
62712;BME280;48772;55.586;37.730;2023-08-20T00:55:50;99657.22;;;22.65;100.00
62712;BME280;48772;55.586;37.730;2023-08-20T00:58:16;99634.78;;;22.56;100.00
62712;BME280;48772;55.586;37.730;2023-08-20T01:00:42;99629.03;;;22.44;100.00
62712;BME280;48772;55.586;37.730;2023-08-20T01:03:08;99640.81;;;22.52;100.00
62712;BME280;48772;55.586;37.730;2023-08-20T01:05:39;99639.69;;;22.46;100.00
62712;BME280;48772;55.586;37.730;2023-08-20T01:11:02;99627.13;;;22.38;100.00
62712;BME280;48772;55.586;37.730;2023-08-20T01:13:29;99646.44;;;22.50;100.00
62712;BME280;48772;55.586;37.730;2023-08-20T01:15:56;99639.53;;;22.48;100.00
62712;BME280;48772;55.586;37.730;2023-08-20T01:18:23;99636.97;;;22.46;100.00
62712;BME280;48772;55.586;37.730;2023-08-20T01:20:58;99640.06;;;22.36;100.00
62712;BME280;48772;55.586;37.730;2023-08-20T01:26:12;99652.84;;;22.42;100.00
62712;BME280;48772;55.586;37.730;2023-08-20T01:28:44;99654.69;;;22.35;100.00
62712;BME280;48772;55.586;37.730;2023-08-20T01:31:11;99641.50;;;22.32;100.00
62712;BME280;48772;55.586;37.730;2023-08-20T01:33:37;99644.03;;;22.40;100.00
62712;BME280;48772;55.586;37.730;2023-08-20T01:36:07;99648.41;;;22.35;100.00
62712;BME280;48772;55.586;37.730;2023-08-20T01:38:36;99644.34;;;22.24;100.00
62712;BME280;48772;55.586;37.730;2023-08-20T01:41:03;99646.31;;;22.09;100.00
62712;BME280;48772;55.586;37.730;2023-08-20T01:43:29;99654.41;;;22.03;100.00
62712;BME280;48772;55.586;37.730;2023-08-20T01:45:55;99659.00;;;22.02;100.00
62712;BME280;48772;55.586;37.730;2023-08-20T01:48:21;99662.50;;;21.96;100.00
62712;BME280;48772;55.586;37.730;2023-08-20T01:50:47;99652.69;;;21.95;100.00
62712;BME280;48772;55.586;37.730;2023-08-20T01:53:13;99639.88;;;21.89;100.00
62712;BME280;48772;55.586;37.730;2023-08-20T01:55:42;99660.63;;;21.97;100.00
62712;BME280;48772;55.586;37.730;2023-08-20T01:58:08;99666.78;;;21.84;100.00
62712;BME280;48772;55.586;37.730;2023-08-20T02:00:33;99655.03;;;21.63;100.00
62712;BME280;48772;55.586;37.730;2023-08-20T02:02:59;99683.59;;;21.73;100.00
62712;BME280;48772;55.586;37.730;2023-08-20T02:05:25;99684.78;;;21.71;100.00
62712;BME280;48772;55.586;37.730;2023-08-20T02:07:51;99683.53;;;21.52;100.00
62712;BME280;48772;55.586;37.730;2023-08-20T02:10:17;99677.19;;;21.45;100.00
62712;BME280;48772;55.586;37.730;2023-08-20T02:12:45;99674.41;;;21.39;100.00
62712;BME280;48772;55.586;37.730;2023-08-20T02:15:11;99674.66;;;21.44;100.00
62712;BME280;48772;55.586;37.730;2023-08-20T02:17:37;99683.66;;;21.44;100.00
62712;BME280;48772;55.586;37.730;2023-08-20T02:20:04;99658.56;;;21.42;100.00
62712;BME280;48772;55.586;37.730;2023-08-20T02:22:31;99679.13;;;21.51;100.00
62712;BME280;48772;55.586;37.730;2023-08-20T02:24:57;99685.78;;;21.49;100.00
62712;BME280;48772;55.586;37.730;2023-08-20T02:27:26;99666.00;;;21.34;100.00
62712;BME280;48772;55.586;37.730;2023-08-20T02:29:52;99671.88;;;21.37;100.00
62712;BME280;48772;55.586;37.730;2023-08-20T02:32:18;99658.63;;;21.28;100.00
62712;BME280;48772;55.586;37.730;2023-08-20T02:34:50;99648.13;;;21.25;100.00
62712;BME280;48772;55.586;37.730;2023-08-20T02:37:16;99638.72;;;21.21;100.00
62712;BME280;48772;55.586;37.730;2023-08-20T02:39:42;99628.72;;;21.07;100.00
62712;BME280;48772;55.586;37.730;2023-08-20T02:42:08;99685.81;;;21.34;100.00
62712;BME280;48772;55.586;37.730;2023-08-20T02:44:34;99688.22;;;21.44;100.00
62712;BME280;48772;55.586;37.730;2023-08-20T02:47:00;99686.38;;;21.44;100.00
62712;BME280;48772;55.586;37.730;2023-08-20T02:49:25;99683.84;;;21.43;100.00
62712;BME280;48772;55.586;37.730;2023-08-20T02:51:51;99676.72;;;21.42;100.00
62712;BME280;48772;55.586;37.730;2023-08-20T02:54:17;99676.03;;;21.54;100.00
62712;BME280;48772;55.586;37.730;2023-08-20T02:56:43;99683.16;;;21.55;100.00
62712;BME280;48772;55.586;37.730;2023-08-20T02:59:09;99677.34;;;21.58;100.00
62712;BME280;48772;55.586;37.730;2023-08-20T03:01:34;99681.97;;;21.64;100.00
62712;BME280;48772;55.586;37.730;2023-08-20T03:04:01;99650.00;;;21.60;100.00
62712;BME280;48772;55.586;37.730;2023-08-20T03:06:27;99675.50;;;21.80;100.00
62712;BME280;48772;55.586;37.730;2023-08-20T03:08:53;99675.13;;;21.83;100.00
62712;BME280;48772;55.586;37.730;2023-08-20T03:11:19;99646.47;;;21.80;100.00
62712;BME280;48772;55.586;37.730;2023-08-20T03:13:45;99664.09;;;22.12;100.00
62712;BME280;48772;55.586;37.730;2023-08-20T03:16:11;99662.25;;;22.12;100.00
62712;BME280;48772;55.586;37.730;2023-08-20T03:18:37;99653.28;;;22.18;100.00
62712;BME280;48772;55.586;37.730;2023-08-20T03:21:02;99675.56;;;22.35;100.00
62712;BME280;48772;55.586;37.730;2023-08-20T03:23:28;99673.94;;;22.40;100.00
62712;BME280;48772;55.586;37.730;2023-08-20T03:25:57;99667.00;;;22.31;100.00
62712;BME280;48772;55.586;37.730;2023-08-20T03:28:24;99696.78;;;22.46;100.00
62712;BME280;48772;55.586;37.730;2023-08-20T03:30:50;99687.72;;;22.39;100.00
62712;BME280;48772;55.586;37.730;2023-08-20T03:33:18;99680.19;;;22.34;100.00
62712;BME280;48772;55.586;37.730;2023-08-20T03:35:46;99694.63;;;22.41;100.00
62712;BME280;48772;55.586;37.730;2023-08-20T03:38:11;99690.00;;;22.57;100.00
62712;BME280;48772;55.586;37.730;2023-08-20T03:40:37;99677.44;;;22.56;100.00
62712;BME280;48772;55.586;37.730;2023-08-20T03:43:03;99654.59;;;22.50;100.00
62712;BME280;48772;55.586;37.730;2023-08-20T03:45:30;99670.09;;;22.50;100.00
62712;BME280;48772;55.586;37.730;2023-08-20T03:47:57;99678.88;;;22.30;100.00
62712;BME280;48772;55.586;37.730;2023-08-20T03:50:23;99683.81;;;22.20;100.00
62712;BME280;48772;55.586;37.730;2023-08-20T03:52:49;99658.09;;;22.16;100.00
62712;BME280;48772;55.586;37.730;2023-08-20T03:55:16;99673.50;;;21.88;100.00
62712;BME280;48772;55.586;37.730;2023-08-20T03:57:42;99691.81;;;21.65;100.00
62712;BME280;48772;55.586;37.730;2023-08-20T04:00:10;99610.31;;;21.02;100.00
62712;BME280;48772;55.586;37.730;2023-08-20T04:02:45;99685.97;;;21.12;100.00
62712;BME280;48772;55.586;37.730;2023-08-20T04:05:12;99679.25;;;20.93;100.00
62712;BME280;48772;55.586;37.730;2023-08-20T04:07:38;99671.81;;;20.87;100.00
62712;BME280;48772;55.586;37.730;2023-08-20T04:10:04;99702.50;;;20.88;100.00
62712;BME280;48772;55.586;37.730;2023-08-20T04:12:32;99677.34;;;20.65;100.00
62712;BME280;48772;55.586;37.730;2023-08-20T04:14:58;99694.28;;;20.81;100.00
62712;BME280;48772;55.586;37.730;2023-08-20T04:17:24;99701.63;;;20.87;100.00
62712;BME280;48772;55.586;37.730;2023-08-20T04:19:51;99720.34;;;20.82;100.00
62712;BME280;48772;55.586;37.730;2023-08-20T04:22:17;99702.50;;;20.73;100.00
62712;BME280;48772;55.586;37.730;2023-08-20T04:24:43;99704.19;;;20.74;100.00
62712;BME280;48772;55.586;37.730;2023-08-20T04:27:09;99714.16;;;20.74;100.00
62712;BME280;48772;55.586;37.730;2023-08-20T04:29:36;99694.06;;;20.68;100.00
62712;BME280;48772;55.586;37.730;2023-08-20T04:32:02;99669.41;;;20.63;100.00
62712;BME280;48772;55.586;37.730;2023-08-20T04:34:28;99636.09;;;20.40;100.00
62712;BME280;48772;55.586;37.730;2023-08-20T04:36:55;99661.66;;;20.60;100.00
62712;BME280;48772;55.586;37.730;2023-08-20T04:39:21;99667.78;;;20.54;100.00
62712;BME280;48772;55.586;37.730;2023-08-20T04:41:53;99669.38;;;20.49;100.00
62712;BME280;48772;55.586;37.730;2023-08-20T04:44:23;99664.22;;;20.39;100.00
62712;BME280;48772;55.586;37.730;2023-08-20T04:46:49;99675.06;;;20.39;100.00
62712;BME280;48772;55.586;37.730;2023-08-20T04:49:16;99678.03;;;20.30;100.00
62712;BME280;48772;55.586;37.730;2023-08-20T04:51:42;99672.03;;;20.20;100.00
62712;BME280;48772;55.586;37.730;2023-08-20T04:54:08;99673.94;;;20.19;100.00
62712;BME280;48772;55.586;37.730;2023-08-20T04:56:34;99673.63;;;20.14;100.00
62712;BME280;48772;55.586;37.730;2023-08-20T04:59:00;99645.56;;;20.07;100.00
62712;BME280;48772;55.586;37.730;2023-08-20T05:01:54;99675.16;;;20.31;100.00
62712;BME280;48772;55.586;37.730;2023-08-20T05:04:35;99678.31;;;20.20;100.00
62712;BME280;48772;55.586;37.730;2023-08-20T05:07:05;99659.06;;;20.15;100.00
62712;BME280;48772;55.586;37.730;2023-08-20T05:09:31;99664.78;;;20.35;100.00
62712;BME280;48772;55.586;37.730;2023-08-20T05:11:57;99657.50;;;20.35;100.00
62712;BME280;48772;55.586;37.730;2023-08-20T05:14:23;99656.41;;;20.44;100.00
62712;BME280;48772;55.586;37.730;2023-08-20T05:16:49;99620.97;;;20.31;100.00
62712;BME280;48772;55.586;37.730;2023-08-20T05:19:14;99643.03;;;20.57;100.00
62712;BME280;48772;55.586;37.730;2023-08-20T05:21:40;99650.13;;;20.58;100.00
62712;BME280;48772;55.586;37.730;2023-08-20T05:24:06;99632.09;;;20.65;100.00
62712;BME280;48772;55.586;37.730;2023-08-20T05:26:34;99621.84;;;20.61;100.00
62712;BME280;48772;55.586;37.730;2023-08-20T05:29:00;99619.47;;;20.72;100.00
62712;BME280;48772;55.586;37.730;2023-08-20T05:31:27;99621.16;;;20.88;100.00
62712;BME280;48772;55.586;37.730;2023-08-20T05:33:52;99621.09;;;20.96;100.00
62712;BME280;48772;55.586;37.730;2023-08-20T05:36:18;99606.59;;;21.03;100.00
62712;BME280;48772;55.586;37.730;2023-08-20T05:38:46;99603.19;;;21.16;100.00
62712;BME280;48772;55.586;37.730;2023-08-20T05:41:12;99590.22;;;21.32;100.00
62712;BME280;48772;55.586;37.730;2023-08-20T05:43:38;99580.34;;;21.46;100.00
62712;BME280;48772;55.586;37.730;2023-08-20T05:46:04;99580.25;;;21.60;100.00
62712;BME280;48772;55.586;37.730;2023-08-20T05:48:30;99580.94;;;21.83;100.00
62712;BME280;48772;55.586;37.730;2023-08-20T05:50:56;99560.03;;;21.84;100.00
62712;BME280;48772;55.586;37.730;2023-08-20T05:53:22;99570.47;;;22.08;100.00
62712;BME280;48772;55.586;37.730;2023-08-20T05:55:48;99575.00;;;22.28;100.00
62712;BME280;48772;55.586;37.730;2023-08-20T05:58:14;99566.47;;;22.38;100.00
62712;BME280;48772;55.586;37.730;2023-08-20T06:00:41;99579.75;;;22.54;100.00
62712;BME280;48772;55.586;37.730;2023-08-20T06:03:07;99561.66;;;22.68;100.00
62712;BME280;48772;55.586;37.730;2023-08-20T06:05:34;99545.16;;;22.76;100.00
62712;BME280;48772;55.586;37.730;2023-08-20T06:08:00;99563.31;;;22.62;100.00
62712;BME280;48772;55.586;37.730;2023-08-20T06:10:26;99564.50;;;22.53;100.00
62712;BME280;48772;55.586;37.730;2023-08-20T06:12:52;99568.53;;;22.64;100.00
62712;BME280;48772;55.586;37.730;2023-08-20T06:15:18;99554.34;;;22.75;100.00
62712;BME280;48772;55.586;37.730;2023-08-20T06:17:44;99551.28;;;22.91;100.00
62712;BME280;48772;55.586;37.730;2023-08-20T06:20:11;99562.91;;;23.19;100.00
62712;BME280;48772;55.586;37.730;2023-08-20T06:22:38;99545.97;;;23.23;100.00
62712;BME280;48772;55.586;37.730;2023-08-20T06:25:04;99548.53;;;23.51;100.00
62712;BME280;48772;55.586;37.730;2023-08-20T06:27:31;99542.25;;;23.63;100.00
62712;BME280;48772;55.586;37.730;2023-08-20T06:29:56;99531.75;;;23.60;100.00
62712;BME280;48772;55.586;37.730;2023-08-20T06:32:23;99541.00;;;23.79;100.00
62712;BME280;48772;55.586;37.730;2023-08-20T06:34:49;99529.25;;;23.78;100.00
62712;BME280;48772;55.586;37.730;2023-08-20T06:37:15;99539.31;;;23.84;100.00
62712;BME280;48772;55.586;37.730;2023-08-20T06:39:41;99534.72;;;23.85;100.00
62712;BME280;48772;55.586;37.730;2023-08-20T06:42:07;99521.94;;;23.72;100.00
62712;BME280;48772;55.586;37.730;2023-08-20T06:44:33;99528.00;;;23.81;100.00
62712;BME280;48772;55.586;37.730;2023-08-20T06:47:00;99530.53;;;23.76;100.00
62712;BME280;48772;55.586;37.730;2023-08-20T06:49:26;99528.00;;;23.68;100.00
62712;BME280;48772;55.586;37.730;2023-08-20T06:51:52;99546.44;;;23.85;100.00
62712;BME280;48772;55.586;37.730;2023-08-20T06:54:18;99528.84;;;23.81;100.00
62712;BME280;48772;55.586;37.730;2023-08-20T06:56:44;99546.03;;;24.08;100.00
62712;BME280;48772;55.586;37.730;2023-08-20T06:59:10;99545.63;;;24.11;100.00
62712;BME280;48772;55.586;37.730;2023-08-20T07:01:36;99522.97;;;23.91;100.00
62712;BME280;48772;55.586;37.730;2023-08-20T07:04:02;99551.91;;;24.05;100.00
62712;BME280;48772;55.586;37.730;2023-08-20T07:06:28;99536.78;;;24.15;100.00
62712;BME280;48772;55.586;37.730;2023-08-20T07:08:54;99540.50;;;24.40;100.00
62712;BME280;48772;55.586;37.730;2023-08-20T07:11:20;99538.22;;;24.44;100.00
62712;BME280;48772;55.586;37.730;2023-08-20T07:13:45;99532.06;;;24.68;100.00
62712;BME280;48772;55.586;37.730;2023-08-20T07:16:11;99538.72;;;24.85;100.00
62712;BME280;48772;55.586;37.730;2023-08-20T07:18:37;99516.13;;;24.65;100.00
62712;BME280;48772;55.586;37.730;2023-08-20T07:21:03;99532.91;;;24.68;100.00
62712;BME280;48772;55.586;37.730;2023-08-20T07:23:29;99510.78;;;24.83;100.00
62712;BME280;48772;55.586;37.730;2023-08-20T07:26:09;99508.97;;;25.08;100.00
62712;BME280;48772;55.586;37.730;2023-08-20T07:28:36;99494.59;;;25.32;100.00
62712;BME280;48772;55.586;37.730;2023-08-20T07:31:20;99510.13;;;25.31;100.00
62712;BME280;48772;55.586;37.730;2023-08-20T07:33:47;99514.72;;;25.31;100.00
62712;BME280;48772;55.586;37.730;2023-08-20T07:36:16;99515.56;;;25.63;100.00
62712;BME280;48772;55.586;37.730;2023-08-20T07:38:43;99491.06;;;25.74;100.00
62712;BME280;48772;55.586;37.730;2023-08-20T07:41:10;99477.91;;;25.89;100.00
62712;BME280;48772;55.586;37.730;2023-08-20T07:43:40;99491.50;;;26.20;100.00
62712;BME280;48772;55.586;37.730;2023-08-20T07:46:07;99490.56;;;26.26;100.00
62712;BME280;48772;55.586;37.730;2023-08-20T07:48:34;99487.78;;;26.51;100.00
62712;BME280;48772;55.586;37.730;2023-08-20T07:51:01;99467.91;;;26.55;100.00
62712;BME280;48772;55.586;37.730;2023-08-20T07:53:27;99492.50;;;26.80;100.00
62712;BME280;48772;55.586;37.730;2023-08-20T07:55:53;99483.75;;;26.71;100.00
62712;BME280;48772;55.586;37.730;2023-08-20T07:58:19;99478.13;;;26.66;100.00
62712;BME280;48772;55.586;37.730;2023-08-20T08:00:44;99485.31;;;26.79;100.00
62712;BME280;48772;55.586;37.730;2023-08-20T08:03:13;99462.88;;;26.88;100.00
62712;BME280;48772;55.586;37.730;2023-08-20T08:05:50;99463.91;;;27.05;100.00
62712;BME280;48772;55.586;37.730;2023-08-20T08:08:16;99446.44;;;27.18;100.00
62712;BME280;48772;55.586;37.730;2023-08-20T08:10:44;99456.78;;;27.57;100.00
62712;BME280;48772;55.586;37.730;2023-08-20T08:13:14;99458.81;;;27.61;100.00
62712;BME280;48772;55.586;37.730;2023-08-20T08:15:40;99450.94;;;27.76;100.00
62712;BME280;48772;55.586;37.730;2023-08-20T08:18:07;99441.44;;;27.90;100.00
62712;BME280;48772;55.586;37.730;2023-08-20T08:20:33;99442.94;;;28.33;100.00
62712;BME280;48772;55.586;37.730;2023-08-20T08:22:59;99438.31;;;28.21;100.00
62712;BME280;48772;55.586;37.730;2023-08-20T08:25:26;99411.69;;;28.33;100.00
62712;BME280;48772;55.586;37.730;2023-08-20T08:27:52;99408.72;;;28.35;100.00
62712;BME280;48772;55.586;37.730;2023-08-20T08:30:18;99415.84;;;28.59;100.00
62712;BME280;48772;55.586;37.730;2023-08-20T08:32:44;99415.03;;;28.75;100.00
62712;BME280;48772;55.586;37.730;2023-08-20T08:35:10;99417.47;;;28.88;100.00
62712;BME280;48772;55.586;37.730;2023-08-20T08:37:36;99407.31;;;29.17;100.00
62712;BME280;48772;55.586;37.730;2023-08-20T08:40:03;99407.75;;;29.25;100.00
62712;BME280;48772;55.586;37.730;2023-08-20T08:42:35;99356.75;;;28.85;100.00
62712;BME280;48772;55.586;37.730;2023-08-20T08:45:02;99390.06;;;29.21;100.00
62712;BME280;48772;55.586;37.730;2023-08-20T08:47:30;99396.16;;;29.40;100.00
62712;BME280;48772;55.586;37.730;2023-08-20T08:49:56;99385.41;;;29.55;100.00
62712;BME280;48772;55.586;37.730;2023-08-20T08:52:23;99404.72;;;29.27;100.00
62712;BME280;48772;55.586;37.730;2023-08-20T08:54:49;99376.94;;;29.40;100.00
62712;BME280;48772;55.586;37.730;2023-08-20T08:57:15;99399.63;;;29.85;100.00
62712;BME280;48772;55.586;37.730;2023-08-20T08:59:42;99391.69;;;30.05;100.00
62712;BME280;48772;55.586;37.730;2023-08-20T09:02:17;99382.84;;;29.65;100.00
62712;BME280;48772;55.586;37.730;2023-08-20T09:04:43;99394.00;;;30.13;100.00
62712;BME280;48772;55.586;37.730;2023-08-20T09:07:13;99404.09;;;30.07;100.00
62712;BME280;48772;55.586;37.730;2023-08-20T09:09:43;99394.50;;;30.10;100.00
62712;BME280;48772;55.586;37.730;2023-08-20T09:12:16;99410.00;;;29.61;100.00
62712;BME280;48772;55.586;37.730;2023-08-20T09:14:49;99381.94;;;29.43;100.00
62712;BME280;48772;55.586;37.730;2023-08-20T09:17:15;99356.59;;;29.41;100.00
62712;BME280;48772;55.586;37.730;2023-08-20T09:19:43;99406.38;;;29.94;100.00
62712;BME280;48772;55.586;37.730;2023-08-20T09:22:14;99412.25;;;29.64;100.00
62712;BME280;48772;55.586;37.730;2023-08-20T09:24:51;99397.69;;;29.64;100.00
62712;BME280;48772;55.586;37.730;2023-08-20T09:27:17;99395.25;;;29.67;100.00
62712;BME280;48772;55.586;37.730;2023-08-20T09:29:45;99400.91;;;29.77;100.00
62712;BME280;48772;55.586;37.730;2023-08-20T09:32:15;99379.78;;;29.99;100.00
62712;BME280;48772;55.586;37.730;2023-08-20T09:34:42;99366.47;;;30.13;100.00
62712;BME280;48772;55.586;37.730;2023-08-20T09:37:18;99367.13;;;30.63;100.00
62712;BME280;48772;55.586;37.730;2023-08-20T09:39:45;99360.00;;;30.67;100.00
62712;BME280;48772;55.586;37.730;2023-08-20T09:42:12;99364.22;;;31.01;100.00
62712;BME280;48772;55.586;37.730;2023-08-20T09:44:40;99347.00;;;31.47;100.00
62712;BME280;48772;55.586;37.730;2023-08-20T09:47:08;99359.03;;;30.78;100.00
62712;BME280;48772;55.586;37.730;2023-08-20T09:50:00;99356.66;;;30.65;100.00
62712;BME280;48772;55.586;37.730;2023-08-20T09:52:42;99337.91;;;30.62;100.00
62712;BME280;48772;55.586;37.730;2023-08-20T09:55:21;99345.41;;;30.66;100.00
62712;BME280;48772;55.586;37.730;2023-08-20T09:57:48;99347.59;;;30.64;100.00
62712;BME280;48772;55.586;37.730;2023-08-20T10:00:14;99348.00;;;30.51;100.00
62712;BME280;48772;55.586;37.730;2023-08-20T10:02:43;99337.78;;;30.25;100.00
62712;BME280;48772;55.586;37.730;2023-08-20T10:05:11;99339.97;;;30.07;100.00
62712;BME280;48772;55.586;37.730;2023-08-20T10:07:38;99335.91;;;30.09;100.00
62712;BME280;48772;55.586;37.730;2023-08-20T10:10:06;99339.72;;;30.08;100.00
62712;BME280;48772;55.586;37.730;2023-08-20T10:12:32;99333.22;;;29.93;100.00
62712;BME280;48772;55.586;37.730;2023-08-20T10:15:00;99343.63;;;30.12;100.00
62712;BME280;48772;55.586;37.730;2023-08-20T10:17:29;99307.56;;;29.87;100.00
62712;BME280;48772;55.586;37.730;2023-08-20T10:19:57;99344.81;;;29.40;100.00
62712;BME280;48772;55.586;37.730;2023-08-20T10:22:53;99328.38;;;28.96;100.00
62712;BME280;48772;55.586;37.730;2023-08-20T10:25:25;99339.66;;;28.83;100.00
62712;BME280;48772;55.586;37.730;2023-08-20T10:27:51;99320.94;;;28.63;100.00
62712;BME280;48772;55.586;37.730;2023-08-20T10:30:25;99343.19;;;28.78;100.00
62712;BME280;48772;55.586;37.730;2023-08-20T10:33:01;99343.72;;;29.08;100.00
62712;BME280;48772;55.586;37.730;2023-08-20T10:35:47;99327.78;;;28.94;100.00
62712;BME280;48772;55.586;37.730;2023-08-20T10:38:14;99338.50;;;28.95;100.00
62712;BME280;48772;55.586;37.730;2023-08-20T10:46:22;99323.25;;;28.55;100.00
62712;BME280;48772;55.586;37.730;2023-08-20T10:51:24;99315.78;;;28.83;100.00
62712;BME280;48772;55.586;37.730;2023-08-20T10:56:48;99295.63;;;28.45;100.00
62712;BME280;48772;55.586;37.730;2023-08-20T11:01:54;99311.44;;;28.54;100.00
62712;BME280;48772;55.586;37.730;2023-08-20T11:04:22;99293.69;;;28.17;100.00
62712;BME280;48772;55.586;37.730;2023-08-20T11:06:58;99312.78;;;28.12;100.00
62712;BME280;48772;55.586;37.730;2023-08-20T11:09:26;99326.91;;;27.92;100.00
62712;BME280;48772;55.586;37.730;2023-08-20T11:11:53;99326.81;;;27.64;100.00
62712;BME280;48772;55.586;37.730;2023-08-20T11:14:20;99325.13;;;27.63;100.00
62712;BME280;48772;55.586;37.730;2023-08-20T11:16:47;99317.78;;;27.52;100.00
62712;BME280;48772;55.586;37.730;2023-08-20T11:19:19;99330.16;;;27.43;100.00
62712;BME280;48772;55.586;37.730;2023-08-20T11:21:45;99319.19;;;27.43;100.00
62712;BME280;48772;55.586;37.730;2023-08-20T11:24:11;99313.72;;;27.43;100.00
62712;BME280;48772;55.586;37.730;2023-08-20T11:26:42;99294.69;;;27.25;100.00
62712;BME280;48772;55.586;37.730;2023-08-20T11:29:09;99296.06;;;27.16;100.00
62712;BME280;48772;55.586;37.730;2023-08-20T11:31:37;99288.69;;;27.17;100.00
62712;BME280;48772;55.586;37.730;2023-08-20T11:34:03;99291.53;;;27.10;100.00
62712;BME280;48772;55.586;37.730;2023-08-20T11:36:31;99295.47;;;27.03;100.00
62712;BME280;48772;55.586;37.730;2023-08-20T11:38:57;99272.50;;;26.92;100.00
62712;BME280;48772;55.586;37.730;2023-08-20T11:41:24;99288.19;;;26.97;100.00
62712;BME280;48772;55.586;37.730;2023-08-20T11:43:53;99295.69;;;26.90;100.00
62712;BME280;48772;55.586;37.730;2023-08-20T11:46:21;99286.47;;;26.61;100.00
62712;BME280;48772;55.586;37.730;2023-08-20T11:49:03;99310.25;;;26.61;100.00
62712;BME280;48772;55.586;37.730;2023-08-20T11:51:38;99295.19;;;26.40;100.00
62712;BME280;48772;55.586;37.730;2023-08-20T11:54:07;99308.78;;;26.17;100.00
62712;BME280;48772;55.586;37.730;2023-08-20T11:56:34;99335.66;;;25.23;100.00
62712;BME280;48772;55.586;37.730;2023-08-20T11:59:01;99325.13;;;24.78;100.00
62712;BME280;48772;55.586;37.730;2023-08-20T12:01:31;99359.56;;;24.35;100.00
62712;BME280;48772;55.586;37.730;2023-08-20T12:04:04;99341.00;;;24.19;100.00
62712;BME280;48772;55.586;37.730;2023-08-20T12:06:31;99346.06;;;24.09;100.00
62712;BME280;48772;55.586;37.730;2023-08-20T12:08:58;99345.91;;;23.91;100.00
62712;BME280;48772;55.586;37.730;2023-08-20T12:11:25;99338.44;;;23.67;100.00
62712;BME280;48772;55.586;37.730;2023-08-20T12:13:52;99346.69;;;23.41;100.00
62712;BME280;48772;55.586;37.730;2023-08-20T12:16:18;99344.97;;;23.20;100.00
62712;BME280;48772;55.586;37.730;2023-08-20T12:18:47;99332.44;;;22.93;100.00
62712;BME280;48772;55.586;37.730;2023-08-20T12:21:13;99343.31;;;23.13;100.00
62712;BME280;48772;55.586;37.730;2023-08-20T12:23:39;99346.47;;;23.10;100.00
62712;BME280;48772;55.586;37.730;2023-08-20T12:26:05;99341.66;;;22.66;100.00
62712;BME280;48772;55.586;37.730;2023-08-20T12:28:31;99343.97;;;22.76;100.00
62712;BME280;48772;55.586;37.730;2023-08-20T12:30:57;99347.94;;;22.86;100.00
62712;BME280;48772;55.586;37.730;2023-08-20T12:33:23;99359.22;;;22.77;100.00
62712;BME280;48772;55.586;37.730;2023-08-20T12:35:49;99307.75;;;22.56;100.00
62712;BME280;48772;55.586;37.730;2023-08-20T12:38:16;99285.31;;;22.40;100.00
62712;BME280;48772;55.586;37.730;2023-08-20T12:40:41;99356.28;;;22.72;100.00
62712;BME280;48772;55.586;37.730;2023-08-20T12:43:08;99350.84;;;22.72;100.00
62712;BME280;48772;55.586;37.730;2023-08-20T12:45:34;99344.56;;;22.65;100.00
62712;BME280;48772;55.586;37.730;2023-08-20T12:48:00;99363.59;;;22.71;100.00
62712;BME280;48772;55.586;37.730;2023-08-20T12:50:26;99344.06;;;22.41;100.00
62712;BME280;48772;55.586;37.730;2023-08-20T12:52:52;99354.94;;;22.41;100.00
62712;BME280;48772;55.586;37.730;2023-08-20T12:55:18;99310.19;;;22.24;100.00
62712;BME280;48772;55.586;37.730;2023-08-20T12:57:55;99280.72;;;22.28;100.00
62712;BME280;48772;55.586;37.730;2023-08-20T13:00:22;99291.44;;;22.56;100.00
62712;BME280;48772;55.586;37.730;2023-08-20T13:02:48;99326.38;;;22.98;100.00